KEWK/EWK METAR and TAF weather

Enter ICAO airport designator
Station Type Date Time Source
KEWK METAR 2022/08/16 18:56 UTC NOAA

KEWK 161856Z AUTO 01008G15KT 10SM FEW033 30/20 A2999 RMK AO2 SLP135 T03000200


Station Type Date Time Source
KEWK Decoded METAR 2022/08/16 18:56 UTC NOAA

Newton, Newton City/County Airport, KS, United States (KEWK) 38-03N 097-17W
Aug 16, 2022 - 02:56 PM EDT / 2022.08.16 1856 UTC
Wind: from the N (010 degrees) at 9 MPH (8 KT) gusting to 17 MPH (15 KT):0
Visibility: 10 mile(s):0
Sky conditions: mostly clear
Temperature: 86.0 F (30.0 C)
Dew Point: 68.0 F (20.0 C)
Relative Humidity: 55%
Pressure (altimeter): 29.99 in. Hg (1015 hPa)
ob: KEWK 161856Z AUTO 01008G15KT 10SM FEW033 30/20 A2999 RMK AO2 SLP135 T03000200
cycle: 19

Station Type Date Time Source
KEWK TAF UTC NOAA

Error!

Example: see airport list